• Join FlightAware (Why Join?)
  • Login
  • US Flag 
12:15PM EDT


 

Airport Tracker/Info


-or-


 

Live Flight TrackerFlight Track Log ✈ N179WB ✈ 16-May-2012 ✈ KSAT - KMAF

Flight Track Log - Related Links

Times and Time Zones

All times are in EDT time to prevent confusion due to time zone crossing. See the N179WB flight status page for this flight to view local times or setup timezone preferences in your user account.

Time Position Orientation Groundspeed Altitude Reporting Facility
EDT Latitude Longitude Course Direction KTS MPH feet Rate Location/Type
03:36PM 29.5225 -98.4653 159° South 153 176 1,400  Level Houston Center
03:38PM 29.4408 -98.4289 188° South 174 200 4,700 1,680 Climbing Houston Center
03:38PM 29.4094 -98.4339 270° West 189 217 5,800 1,740 Climbing Houston Center
03:39PM 29.4092 -98.4792 327° Northwest 172 198 7,900 1,740 Climbing Houston Center
03:41PM 29.4514 -98.5106 329° Northwest 174 200 9,700 1,440 Climbing Houston Center
03:42PM 29.4978 -98.5422 329° Northwest 193 222 11,000 600 Climbing Houston Center
03:43PM 29.5564 -98.5819 335° Northwest 242 278 11,000  Level Houston Center
03:43PM 29.6111 -98.6119 332° Northwest 255 293 11,000  Level Houston Center
03:45PM 29.6797 -98.6547 331° Northwest 256 295 11,000 -60 Level Houston Center
03:45PM 29.7344 -98.6894 332° Northwest 254 292 10,900 300 Descending Houston Center
03:46PM 29.7969 -98.7272 328° Northwest 251 289 11,600 660 Climbing Houston Center
03:48PM 29.8553 -98.7694 313° West 246 283 12,400 660 Climbing Houston Center
03:49PM 29.8983 -98.8228 310° West 246 283 13,000 300 Climbing Houston Center
03:50PM 29.9469 -98.8908 309° West 252 290 13,000  Level Houston Center
03:51PM 29.9894 -98.9511 307° West 262 302 13,000 660 Level Houston Center
03:52PM 30.0358 -99.0217 303° West 262 302 14,400 1,500 Climbing Houston Center
03:53PM 30.0644 -99.0717 306° West 227 261 16,100 1,620 Climbing Houston Center
03:54PM 30.0969 -99.1242 307° West 218 251 17,700 1,440 Climbing Houston Center
03:55PM 30.1333 -99.1797 305° West 212 244 19,000 1,440 Climbing Houston Center
03:56PM 30.1658 -99.2325 306° West 212 244 20,600 1,440 Climbing Houston Center
03:57PM 30.2003 -99.2878 306° West 212 244 21,900 660 Climbing Houston Center
03:58PM 30.2406 -99.3508 306° West 218 251 22,000  Climbing Houston Center
03:59PM 30.2844 -99.4214 306° West 247 284 22,000  Level Houston Center
04:00PM 30.3283 -99.4922 306° West 266 306 22,000  Level Houston Center
04:01PM 30.3722 -99.5628 304° West 273 314 22,000  Level Houston Center
04:02PM 30.4158 -99.6383 306° West 279 321 22,000  Level Houston Center
04:03PM 30.4672 -99.7194 307° West 279 321 22,000  Level Houston Center
04:04PM 30.5131 -99.7903 304° West 279 321 22,000  Level Houston Center
04:05PM 30.5564 -99.8636 305° West 279 321 22,000  Level Houston Center
04:06PM 30.6000 -99.9347 306° West 279 321 22,000  Level Houston Center
04:07PM 30.6456 -100.0083 306° West 279 321 22,000  Level Houston Center
04:08PM 30.6908 -100.0819 306° West 279 321 22,000  Level Houston Center
04:09PM 30.7364 -100.1558 304° West 279 321 22,000  Level Houston Center
04:10PM 30.7797 -100.2294 305° West 279 321 22,000  Level Houston Center
04:11PM 30.8231 -100.3008 304° West 279 321 22,000  Level Houston Center
04:12PM 30.8661 -100.3744 304° West 279 321 22,000  Level Houston Center
04:13PM 30.9092 -100.4483 306° West 279 321 22,000  Level Houston Center
04:14PM 30.9817 -100.5656 306° West 283 326 22,000  Level Fort Worth Center
04:15PM 31.0258 -100.6372 304° West 278 320 22,000  Level Fort Worth Center
04:16PM 31.0697 -100.7139 305° West 278 320 22,000 -180 Level Fort Worth Center
04:17PM 31.1136 -100.7883 304° West 278 320 21,700 -600 Descending Fort Worth Center
04:18PM 31.1594 -100.8675 305° West 289 333 20,800 -900 Descending Fort Worth Center
04:19PM 31.2075 -100.9472 302° West 289 333 20,000 -840 Descending Fort Worth Center
04:20PM 31.2531 -101.0314 306° West 289 333 19,200 -900 Descending Fort Worth Center
04:21PM 31.2989 -101.1061 306° West 289 333 18,300 -840 Descending Fort Worth Center
04:22PM 31.3467 -101.1833 306° West 294 338 17,600 -720 Descending Fort Worth Center
04:23PM 31.3886 -101.2508 306° West 294 338 16,900 -780 Descending Fort Worth Center
04:24PM 31.4364 -101.3283 304° West 294 338 16,100 -1,140 Descending Fort Worth Center
04:25PM 31.4817 -101.4081 305° West 294 338 14,700 -1,500 Descending Fort Worth Center
04:26PM 31.5292 -101.4881 304° West 294 338 13,200 -1,440 Descending Fort Worth Center
04:27PM 31.5747 -101.5683 304° West 294 338 11,900 -1,500 Descending Fort Worth Center
04:28PM 31.6200 -101.6483 319° Northwest 294 338 10,300 -1,560 Descending Fort Worth Center
04:29PM 31.6806 -101.7097 322° Northwest 294 338 8,800 -1,200 Descending Fort Worth Center
04:30PM 31.7392 -101.7636 325° Northwest 282 325 8,000 -720 Descending Fort Worth Center
04:31PM 31.7981 -101.8128 324° Northwest 269 310 7,400 -420 Descending Fort Worth Center
04:32PM 31.8547 -101.8619 322° Northwest 258 297 7,200 -240 Descending Fort Worth Center
04:33PM 31.9072 -101.9111 311° West 253 291 7,000 -180 Descending Fort Worth Center
04:34PM 31.9511 -101.9697 314° West 243 280 6,900 -420 Descending Fort Worth Center
04:35PM 31.9969 -102.0258 312° West 237 273 6,200 -720 Descending Fort Worth Center
04:36PM 32.0389 -102.0817 299° West 237 273 5,500 -600 Descending Fort Worth Center
04:37PM 32.0697 -102.1469 238° Southwest 232 267 5,000 -300 Descending Fort Worth Center
04:38PM 32.0406 -102.2019 193° South 180 207 4,900 -540 Descending Fort Worth Center
04:39PM 31.9964 -102.2142 169° South 160 184 4,000 -900 Descending Fort Worth Center
04:47PM 31.4853 -102.0985 169° South  Level Estimated